Cuthbert, GA (39840)

11:42 PM EDT on September 27, 2016 (GMT -0400)
WOP Pasture B | | Change Station

Elev 325 ft 31.50 °N, 84.86 °W | Updated 1 minute ago

Clear
Clear
75.6 °F
Feels Like 76 °F
N
2.9
Wind Variable Wind from West
Gusts 7.0 mph

Today
High -- | Low -- °F
--% Chance of Precip.
Yesterday
High -- | Low -- °F
Precip. -- in
Pressure 29.95 in
Visibility 10.0 miles
Clouds Clear
Heat Index 76 °F
Dew Point 71 °F
Humidity 85%
Rainfall 0.00 in
Snow Depth Not available.
7:30 AM 7:28 PM
Waning Crescent, 8% visible
METAR KABY 280253Z AUTO 24004KT 10SM CLR 24/20 A2995 RMK AO2 SLP140 T02440200 51014
Pressure 29.95 in
Visibility 10.0 miles
Clouds Clear
Heat Index 76 °F
Dew Point 71 °F
Humidity 85%
Rainfall 0.00 in
Snow Depth Not available.
7:30 AM 7:28 PM
Waning Crescent, 8% visible
METAR KABY 280253Z AUTO 24004KT 10SM CLR 24/20 A2995 RMK AO2 SLP140 T02440200 51014

10-Day Weather Forecast

Almanac

Astronomy

Sep. 27, 2016 Rise Set
Actual Time
Civil Twilight
Nautical Twilight
Astronomical Twilight
Moon
Length of Visible Light
Length of Day
Tomorrow will be .
, % of the Moon is Illuminated

Today's Extremes

State Highs State Lows

Community

WunderPhotos

Upload Photos

1,942,203 photos uploaded!

WunderBlog® & News

Nearby

Air Quality

  Air Quality AQ Index Pollutant
Not available.

Snow Depth

Station Depth Elevation

Earthquake Activity

City Distance Mag. Time & Date
Minimum magnitude displayed is 2.5.

Coastal Water Temperatures

Place Temperature

Stations

Nearby Weather Stations

Station Location Temp. Windchill Dew Point Humidity Wind Precip. Elev Updated Type
                   

Watches & Warnings

There are currently no watches in effect.